.
WxDataArchive / Data Records for 2006-09-06
2006-09-05 September 2006 2006-09-07

Data Records for Wednesday, 06 September 2006

Time	Temp	Chill	HIndex	Humid	Dewpt	 Wind 	HiWind	WindDir	Rain 	Barom 
-----	----	-----	------	-----	-----	------	------	-------	-----	----- 
00:00	57.5	57.5	57.5	95	56.1	0	0	---	0.00	30.015 
00:05	57.5	57.5	57.5	95	56.1	0	0	---	0.00	30.015 
00:10	57.5	57.5	57.5	95	56.1	0	0	---	0.00	30.015 
00:15	57.5	57.5	57.5	95	56.1	0	0	---	0.00	30.015 
00:20	57.5	57.5	57.5	95	56.1	0	0	---	0.00	30.015 
00:25	57.5	57.5	57.5	95	56.1	0	0	---	0.00	30.015 
00:30	57.5	57.5	57.5	95	56.1	0	0	---	0.00	30.013 
00:35	57.5	57.5	57.5	95	56.1	0	0	---	0.00	30.013 
00:40	57.5	57.5	57.5	95	56.1	0	1	45	0.00	30.013 
00:45	57.5	57.5	57.5	95	56.1	0	0	---	0.00	30.011 
00:50	57.6	57.6	57.6	95	56.2	0	0	---	0.00	30.011 
00:55	57.5	57.5	57.5	95	56.1	0	0	---	0.00	30.011 
01:00	57.6	57.6	57.6	95	56.2	0	0	---	0.00	30.004 
01:05	57.6	57.6	57.6	95	56.2	0	0	---	0.00	30.004 
01:10	57.6	57.6	57.6	95	56.2	0	0	---	0.00	30.004 
01:15	57.8	57.8	57.8	95	56.4	0	0	---	0.00	30.006 
01:20	57.6	57.6	57.6	95	56.2	0	0	---	0.00	30.006 
01:25	57.6	57.6	57.6	95	56.2	0	0	---	0.00	30.006 
01:30	57.6	57.6	57.6	95	56.2	0	0	---	0.00	30.001 
01:35	57.5	57.5	57.5	95	56.1	0	0	---	0.00	30.001 
01:40	57.5	57.5	57.5	95	56.1	0	0	---	0.00	30.001 
01:45	57.3	57.3	57.3	95	55.9	0	0	---	0.00	30.002 
01:50	57.2	57.2	57.2	95	55.8	0	0	---	0.00	30.002 
01:55	57.2	57.2	57.2	95	55.8	0	0	---	0.00	30.002 
02:00	57.0	57.0	57.0	95	55.6	0	0	---	0.00	30.001 
02:05	56.9	56.9	56.9	95	55.5	0	0	---	0.00	30.001 
02:10	56.9	56.9	56.9	95	55.5	0	0	---	0.00	30.001 
02:15	57.0	57.0	57.0	95	55.6	0	0	---	0.00	29.998 
02:20	57.0	57.0	57.0	95	55.6	0	0	---	0.00	29.998 
02:25	56.9	56.9	56.9	95	55.5	0	0	---	0.00	29.998 
02:30	56.7	56.7	56.7	95	55.3	0	0	---	0.00	29.997 
02:35	56.6	56.6	56.6	95	55.2	0	0	---	0.00	29.997 
02:40	56.6	56.6	56.6	95	55.2	0	0	---	0.00	29.997 
02:45	56.6	56.6	56.6	95	55.2	0	0	---	0.00	29.994 
02:50	56.5	56.5	56.5	95	55.1	0	0	---	0.00	29.994 
02:55	56.5	56.5	56.5	95	55.1	0	0	---	0.00	29.994 
03:00	56.5	56.5	56.5	95	55.1	0	0	---	0.00	29.988 
03:05	56.5	56.5	56.5	95	55.1	0	0	---	0.00	29.988 
03:10	56.3	56.3	56.3	95	54.9	0	0	---	0.00	29.988 
03:15	56.5	56.5	56.5	95	55.1	0	0	---	0.00	29.992 
03:20	56.6	56.6	56.6	95	55.2	0	1	45	0.00	29.992 
03:25	56.6	56.6	56.6	95	55.2	0	0	---	0.00	29.992 
03:30	56.7	56.7	56.7	95	55.3	0	0	---	0.00	29.995 
03:35	56.7	56.7	56.7	95	55.3	0	0	---	0.00	29.995 
03:40	56.6	56.6	56.6	95	55.2	0	0	---	0.00	29.995 
03:45	56.6	56.6	56.6	95	55.2	0	0	---	0.00	29.996 
03:50	56.6	56.6	56.6	95	55.2	0	0	---	0.00	29.996 
03:55	56.5	56.5	56.5	95	55.1	0	0	---	0.00	29.996 
04:00	56.5	56.5	56.5	95	55.1	0	0	---	0.00	29.995 
04:05	56.3	56.3	56.3	95	54.9	0	0	---	0.00	29.995 
04:10	56.0	56.0	56.0	95	54.6	0	0	---	0.00	29.995 
04:15	56.0	56.0	56.0	95	54.6	0	0	---	0.00	29.994 
04:20	55.9	55.9	55.9	95	54.5	0	0	---	0.00	29.994 
04:25	55.7	55.7	55.7	95	54.3	0	0	---	0.00	29.994 
04:30	55.7	55.7	55.7	95	54.3	0	0	---	0.00	29.995 
04:35	55.6	55.6	55.6	95	54.2	0	0	---	0.00	29.995 
04:40	55.4	55.4	55.4	95	54.0	0	0	---	0.00	29.995 
04:45	55.4	55.4	55.4	95	54.0	0	0	---	0.00	29.996 
04:50	55.3	55.3	55.3	95	53.9	0	0	---	0.00	29.996 
04:55	55.3	55.3	55.3	95	53.9	0	0	---	0.00	29.996 
05:00	55.1	55.1	55.1	95	53.7	0	0	---	0.00	29.995 
05:05	55.0	55.0	55.0	95	53.6	0	0	---	0.00	29.995 
05:10	54.8	54.8	54.8	95	53.4	0	0	---	0.00	29.995 
05:15	54.7	54.7	54.7	95	53.3	0	0	---	0.00	29.997 
05:20	54.5	54.5	54.5	95	53.1	0	0	---	0.00	29.997 
05:25	54.4	54.4	54.4	95	53.0	0	0	---	0.00	29.997 
05:30	54.2	54.2	54.2	95	52.8	0	0	---	0.00	30.002 
05:35	54.1	54.1	54.1	95	52.7	0	0	---	0.00	30.002 
05:40	54.1	54.1	54.1	95	52.7	0	0	---	0.00	30.002 
05:45	54.1	54.1	54.1	95	52.7	0	0	---	0.00	29.997 
05:50	54.1	54.1	54.1	96	53.0	0	0	---	0.00	29.997 
05:55	54.2	54.2	54.2	96	53.1	0	0	---	0.00	29.997 
06:00	54.4	54.4	54.4	96	53.3	0	0	---	0.00	30.000 
06:05	54.5	54.5	54.5	96	53.4	0	0	---	0.00	30.000 
06:10	54.5	54.5	54.5	96	53.4	0	0	---	0.00	30.000 
06:15	54.4	54.4	54.4	96	53.3	0	0	---	0.00	30.009 
06:20	54.4	54.4	54.4	96	53.3	0	0	---	0.00	30.009 
06:25	54.1	54.1	54.1	96	53.0	0	0	---	0.00	30.009 
06:30	53.9	53.9	53.9	96	52.8	0	0	---	0.00	30.013 
06:35	53.8	53.8	53.8	96	52.7	0	0	---	0.00	30.013 
06:40	53.8	53.8	53.8	96	52.7	0	0	---	0.00	30.013 
06:45	53.6	53.6	53.6	96	52.5	0	0	---	0.00	30.013 
06:50	53.6	53.6	53.6	96	52.5	0	0	---	0.00	30.013 
06:55	53.6	53.6	53.6	96	52.5	0	0	---	0.00	30.013 
07:00	53.6	53.6	53.6	96	52.5	0	0	---	0.00	30.014 
07:05	53.5	53.5	53.5	96	52.4	0	0	---	0.00	30.014 
07:10	53.5	53.5	53.5	96	52.4	0	0	---	0.00	30.014 
07:15	53.5	53.5	53.5	96	52.4	0	0	---	0.00	30.025 
07:20	53.6	53.6	53.6	96	52.5	0	0	---	0.00	30.025 
07:25	53.6	53.6	53.6	97	52.8	0	0	---	0.00	30.025 
07:30	53.6	53.6	53.6	97	52.8	0	0	---	0.00	30.029 
07:35	53.8	53.8	53.8	97	53.0	0	0	---	0.00	30.029 
07:40	53.9	53.9	53.9	97	53.1	0	0	---	0.00	30.029 
07:45	53.9	53.9	53.9	97	53.1	0	0	---	0.00	30.031 
07:50	53.9	53.9	53.9	97	53.1	0	0	---	0.00	30.031 
07:55	53.9	53.9	53.9	97	53.1	0	0	---	0.00	30.031 
08:00	53.9	53.9	53.9	97	53.1	0	0	---	0.00	30.035 
08:05	54.1	54.1	54.1	97	53.3	0	0	---	0.00	30.035 
08:10	54.4	54.4	54.4	97	53.6	0	0	---	0.00	30.035 
08:15	54.7	54.7	54.7	97	53.9	0	0	---	0.00	30.040 
08:20	55.1	55.1	55.1	97	54.3	0	0	---	0.00	30.040 
08:25	55.7	55.7	55.7	97	54.9	0	0	---	0.00	30.040 
08:30	56.2	56.2	56.2	97	55.4	0	1	45	0.00	30.039 
08:35	56.6	56.6	56.6	97	55.8	0	1	45	0.00	30.039 
08:40	57.0	57.0	57.0	97	56.2	0	0	---	0.00	30.039 
08:45	57.3	57.3	57.3	97	56.5	0	0	---	0.00	30.042 
08:50	57.6	57.6	57.6	97	56.8	0	1	45	0.00	30.042 
08:55	58.0	58.0	58.0	97	57.2	0	0	---	0.00	30.042 
09:00	58.3	58.3	58.3	97	57.5	0	1	45	0.00	30.038 
09:05	58.6	58.6	58.6	97	57.7	0	1	45	0.00	30.038 
09:10	58.9	58.9	58.9	97	58.0	0	1	45	0.00	30.038 
09:15	59.2	59.2	59.2	97	58.3	0	1	45	0.00	30.036 
09:20	59.5	59.5	59.5	97	58.6	0	1	45	0.00	30.036 
09:25	59.8	59.8	59.8	97	58.9	0	2	45	0.00	30.036 
09:30	60.2	60.2	60.2	97	59.3	0	1	45	0.00	30.035 
09:35	60.5	60.5	60.5	96	59.4	0	2	45	0.00	30.035 
09:40	61.0	61.0	61.0	95	59.6	1	2	45	0.00	30.035 
09:45	61.6	61.6	61.6	93	59.6	1	2	45	0.00	30.034 
09:50	62.3	62.3	62.3	91	59.6	0	2	0	0.00	30.034 
09:55	62.9	62.9	62.9	88	59.3	0	2	0	0.00	30.034 
10:00	63.5	63.5	63.5	89	60.2	0	1	0	0.00	30.037 
10:05	64.3	64.3	64.3	87	60.3	0	1	0	0.00	30.037 
10:10	65.2	65.2	65.2	86	60.9	0	1	0	0.00	30.037 
10:15	65.8	65.8	65.8	81	59.8	0	2	0	0.00	30.036 
10:20	66.3	66.3	66.3	80	59.9	0	1	0	0.00	30.036 
10:25	66.8	66.8	66.8	79	60.1	1	2	0	0.00	30.036 
10:30	67.3	67.3	67.3	80	60.9	0	2	0	0.00	30.038 
10:35	67.9	67.9	67.9	77	60.4	0	1	0	0.00	30.038 
10:40	68.1	68.1	68.1	72	58.7	1	2	0	0.00	30.038 
10:45	68.6	68.6	68.6	75	60.3	0	1	0	0.00	30.044 
10:50	69.1	69.1	69.1	71	59.3	1	2	0	0.00	30.044 
10:55	69.6	69.6	69.6	69	59.0	1	3	292	0.00	30.044 
11:00	69.9	69.9	69.9	68	58.8	1	3	270	0.00	30.049 
11:05	70.3	70.3	70.3	69	59.6	0	2	270	0.00	30.049 
11:10	70.9	70.9	70.9	69	60.2	0	1	270	0.00	30.049 
11:15	71.5	71.5	71.5	68	60.4	1	2	22	0.00	30.048 
11:20	71.6	71.6	71.6	66	59.6	0	2	22	0.00	30.048 
11:25	71.8	71.8	71.8	65	59.4	0	2	0	0.00	30.048 
11:30	72.1	72.1	72.1	65	59.7	0	2	0	0.00	30.048 
11:35	72.0	72.0	72.0	60	57.3	1	3	0	0.00	30.048 
11:40	72.3	72.3	72.3	61	58.1	1	3	248	0.00	30.048 
11:45	72.5	72.5	72.5	60	57.8	1	2	225	0.00	30.048 
11:50	72.7	72.7	72.7	59	57.5	0	2	270	0.00	30.048 
11:55	73.2	73.2	73.2	62	59.4	0	2	292	0.00	30.048 
12:00	73.5	73.5	73.5	56	56.8	0	2	292	0.00	30.048 
12:05	73.7	73.7	73.7	53	55.5	0	2	0	0.00	30.048 
12:10	73.9	73.9	73.9	56	57.2	0	2	0	0.00	30.048 
12:15	74.0	74.0	74.0	57	57.8	1	2	338	0.00	30.046 
12:20	74.2	74.2	74.2	57	58.0	1	3	0	0.00	30.046 
12:25	74.7	74.7	74.7	54	56.9	0	2	22	0.00	30.046 
12:30	74.7	74.7	74.7	53	56.4	1	3	338	0.00	30.046 
12:35	74.9	74.9	74.9	52	56.1	1	3	45	0.00	30.046 
12:40	75.1	75.1	77.6	54	57.3	0	2	22	0.00	30.046 
12:45	75.4	75.4	77.8	50	55.4	0	2	22	0.00	30.045 
12:50	75.8	75.8	78.0	51	56.4	0	1	22	0.00	30.045 
12:55	75.4	75.4	77.8	51	56.0	1	4	22	0.00	30.045 
13:00	75.4	75.4	77.8	54	57.6	0	2	22	0.00	30.041 
13:05	75.6	75.6	77.9	50	55.6	1	2	22	0.00	30.041 
13:10	75.8	75.8	78.0	52	56.9	0	1	22	0.00	30.041 
13:15	76.0	76.0	78.1	50	56.0	0	1	22	0.00	30.035 
13:20	76.0	76.0	78.1	54	58.1	0	1	22	0.00	30.035 
13:25	76.1	76.1	78.1	54	58.2	0	2	22	0.00	30.035 
13:30	76.3	76.3	78.2	50	56.3	0	2	22	0.00	30.033 
13:35	76.5	76.5	78.3	48	55.3	0	3	22	0.00	30.033 
13:40	76.8	76.8	78.5	49	56.2	1	3	22	0.00	30.033 
13:45	76.7	76.7	78.4	47	54.9	0	3	45	0.00	30.031 
13:50	76.5	76.5	78.3	50	56.5	2	5	90	0.00	30.031 
13:55	76.3	76.3	78.3	56	59.4	1	3	90	0.00	30.031 
14:00	76.7	76.7	78.4	51	57.2	1	4	90	0.00	30.030 
14:05	77.0	77.0	78.7	54	59.1	0	1	90	0.00	30.030 
14:10	76.3	76.3	78.2	52	57.4	1	2	90	0.00	30.030 
14:15	76.5	76.5	78.4	52	57.5	1	2	45	0.00	30.029 
14:20	76.7	76.7	78.4	50	56.6	1	3	338	0.00	30.029 
14:25	76.7	76.7	78.4	50	56.6	1	3	90	0.00	30.029 
14:30	76.8	76.8	78.5	51	57.3	1	4	22	0.00	30.027 
14:35	76.8	76.8	78.5	50	56.7	1	2	225	0.00	30.027 
14:40	76.1	76.1	78.1	49	55.5	2	5	90	0.00	30.027 
14:45	75.6	75.6	77.9	53	57.2	1	3	90	0.00	30.028 
14:50	76.3	76.3	78.2	51	56.8	1	4	90	0.00	30.028 
14:55	77.0	77.0	78.6	50	56.9	1	4	112	0.00	30.028 
15:00	77.7	77.7	78.9	48	56.4	1	3	90	0.00	30.024 
15:05	77.9	77.9	79.2	51	58.3	0	3	90	0.00	30.024 
15:10	78.5	78.5	79.8	54	60.4	0	2	45	0.00	30.024 
15:15	78.5	78.5	79.5	49	57.7	0	1	315	0.00	30.019 
15:20	78.1	78.1	79.1	46	55.6	1	2	315	0.00	30.019 
15:25	78.1	78.1	79.0	44	54.4	0	2	315	0.00	30.019 
15:30	78.1	78.1	79.1	46	55.6	1	3	292	0.00	30.017 
15:35	78.1	78.1	79.1	46	55.6	0	1	315	0.00	30.017 
15:40	78.1	78.1	79.3	50	57.9	1	4	0	0.00	30.017 
15:45	77.9	77.9	78.9	44	54.2	0	1	68	0.00	30.015 
15:50	77.9	77.9	79.1	48	56.6	1	3	68	0.00	30.015 
15:55	77.6	77.6	78.8	46	55.2	1	2	68	0.00	30.015 
16:00	77.2	77.2	78.7	49	56.5	1	3	68	0.00	30.013 
16:05	77.2	77.2	78.5	45	54.2	1	4	68	0.00	30.013 
16:10	77.4	77.4	78.6	45	54.4	1	2	112	0.00	30.013 
16:15	77.4	77.4	78.7	46	55.0	0	2	22	0.00	30.014 
16:20	77.6	77.6	78.7	43	53.3	1	2	90	0.00	30.014 
16:25	77.9	77.9	78.8	43	53.6	1	2	22	0.00	30.014 
16:30	78.1	78.1	78.9	43	53.8	1	2	292	0.00	30.012 
16:35	78.3	78.3	78.9	41	52.6	1	3	270	0.00	30.012 
16:40	78.5	78.5	79.0	40	52.1	0	2	270	0.00	30.012 
16:45	78.3	78.3	79.1	43	53.9	1	3	270	0.00	30.011 
16:50	78.3	78.3	79.1	43	53.9	0	2	270	0.00	30.011 
16:55	78.3	78.3	79.1	43	53.9	1	3	248	0.00	30.011 
17:00	78.1	78.1	79.2	48	56.8	0	2	248	0.00	30.003 
17:05	77.9	77.9	78.9	45	54.8	0	2	248	0.00	30.003 
17:10	78.1	78.1	79.0	44	54.4	0	2	248	0.00	30.003 
17:15	78.1	78.1	79.0	45	55.0	0	2	248	0.00	30.002 
17:20	77.7	77.7	78.8	44	54.0	0	2	270	0.00	30.002 
17:25	77.6	77.6	78.7	44	53.9	0	1	270	0.00	30.002 
17:30	77.6	77.6	78.7	44	53.9	0	1	270	0.00	30.001 
17:35	77.6	77.6	78.8	47	55.8	0	1	270	0.00	30.001 
17:40	77.4	77.4	78.7	46	55.0	0	2	270	0.00	30.001 
17:45	77.0	77.0	78.5	48	55.8	0	2	270	0.00	30.002 
17:50	77.0	77.0	78.5	47	55.2	0	2	270	0.00	30.002 
17:55	77.0	77.0	78.5	46	54.6	0	1	292	0.00	30.002 
18:00	76.8	76.8	78.5	50	56.7	0	1	292	0.00	30.001 
18:05	76.8	76.8	78.4	48	55.6	0	1	292	0.00	30.001 
18:10	76.7	76.7	78.4	50	56.6	0	2	292	0.00	30.001 
18:15	76.7	76.7	78.4	47	54.9	1	3	292	0.00	30.003 
18:20	76.5	76.5	78.3	50	56.5	0	1	292	0.00	30.003 
18:25	76.3	76.3	78.2	47	54.6	0	1	292	0.00	30.003 
18:30	76.1	76.1	78.1	49	55.5	0	1	292	0.00	30.002 
18:35	76.0	76.0	78.0	48	54.9	0	1	292	0.00	30.002 
18:40	76.0	76.0	78.0	47	54.3	0	1	292	0.00	30.002 
18:45	75.8	75.8	77.9	47	54.1	0	0	---	0.00	30.003 
18:50	75.6	75.6	77.9	48	54.5	0	1	292	0.00	30.003 
18:55	75.4	75.4	77.8	49	54.9	0	1	292	0.00	30.003 
19:00	75.4	75.4	77.8	49	54.9	0	1	292	0.00	30.004 
19:05	75.3	75.3	77.7	50	55.4	0	1	292	0.00	30.004 
19:10	75.1	75.1	77.7	50	55.2	0	0	---	0.00	30.004 
19:15	74.9	74.9	74.9	51	55.5	0	0	---	0.00	30.008 
19:20	74.6	74.6	74.6	53	56.3	0	0	---	0.00	30.008 
19:25	74.4	74.4	74.4	54	56.7	0	0	---	0.00	30.008 
19:30	74.0	74.0	74.0	56	57.3	0	0	---	0.00	30.012 
19:35	73.7	73.7	73.7	55	56.5	0	0	---	0.00	30.012 
19:40	73.2	73.2	73.2	56	56.5	0	0	---	0.00	30.012 
19:45	72.8	72.8	72.8	57	56.7	0	0	---	0.00	30.018 
19:50	72.5	72.5	72.5	57	56.4	0	0	---	0.00	30.018 
19:55	72.1	72.1	72.1	58	56.5	0	0	---	0.00	30.018 
20:00	71.8	71.8	71.8	59	56.7	0	0	---	0.00	30.020 
20:05	71.3	71.3	71.3	61	57.1	0	0	---	0.00	30.020 
20:10	70.8	70.8	70.8	63	57.6	0	0	---	0.00	30.020 
20:15	70.3	70.3	70.3	63	57.1	0	0	---	0.00	30.017 
20:20	69.8	69.8	69.8	66	57.9	0	0	---	0.00	30.017 
20:25	69.1	69.1	69.1	67	57.7	0	0	---	0.00	30.017 
20:30	68.6	68.6	68.6	69	58.0	0	0	---	0.00	30.021 
20:35	68.1	68.1	68.1	70	57.9	0	0	---	0.00	30.021 
20:40	67.6	67.6	67.6	71	57.9	0	0	---	0.00	30.021 
20:45	67.1	67.1	67.1	72	57.8	0	0	---	0.00	30.028 
20:50	66.6	66.6	66.6	74	58.0	0	0	---	0.00	30.028 
20:55	66.3	66.3	66.3	74	57.8	0	0	---	0.00	30.028 
21:00	65.8	65.8	65.8	76	58.0	0	0	---	0.00	30.034 
21:05	65.5	65.5	65.5	77	58.1	0	0	---	0.00	30.034 
21:10	65.2	65.2	65.2	78	58.2	0	0	---	0.00	30.034 
21:15	65.0	65.0	65.0	79	58.3	0	0	---	0.00	30.033 
21:20	64.7	64.7	64.7	79	58.0	0	0	---	0.00	30.033 
21:25	64.3	64.3	64.3	80	58.0	0	0	---	0.00	30.033 
21:30	64.0	64.0	64.0	80	57.7	0	0	---	0.00	30.032 
21:35	63.9	63.9	63.9	81	57.9	0	0	---	0.00	30.032 
21:40	63.5	63.5	63.5	82	57.9	0	0	---	0.00	30.032 
21:45	63.2	63.2	63.2	82	57.6	0	0	---	0.00	30.034 
21:50	63.1	63.1	63.1	82	57.5	0	0	---	0.00	30.034 
21:55	62.9	62.9	62.9	83	57.7	0	0	---	0.00	30.034 
22:00	62.7	62.7	62.7	84	57.8	0	0	---	0.00	30.035 
22:05	62.4	62.4	62.4	84	57.5	0	0	---	0.00	30.035 
22:10	62.3	62.3	62.3	84	57.4	0	0	---	0.00	30.035 
22:15	62.1	62.1	62.1	85	57.5	0	0	---	0.00	30.030 
22:20	62.0	62.0	62.0	84	57.1	0	0	---	0.00	30.030 
22:25	61.8	61.8	61.8	85	57.2	0	0	---	0.00	30.030 
22:30	61.6	61.6	61.6	85	57.0	0	0	---	0.00	30.027 
22:35	61.5	61.5	61.5	86	57.3	0	0	---	0.00	30.027 
22:40	61.3	61.3	61.3	87	57.4	0	0	---	0.00	30.027 
22:45	61.2	61.2	61.2	87	57.3	0	0	---	0.00	30.028 
22:50	60.9	60.9	60.9	87	57.0	0	0	---	0.00	30.028 
22:55	60.7	60.7	60.7	88	57.1	0	0	---	0.00	30.028 
23:00	60.5	60.5	60.5	88	56.9	0	0	---	0.00	30.032 
23:05	60.4	60.4	60.4	89	57.1	0	0	---	0.00	30.032 
23:10	60.4	60.4	60.4	89	57.1	0	0	---	0.00	30.032 
23:15	60.2	60.2	60.2	89	56.9	0	0	---	0.00	30.027 
23:20	60.1	60.1	60.1	89	56.8	0	0	---	0.00	30.027 
23:25	59.9	59.9	59.9	89	56.6	0	0	---	0.00	30.027 
23:30	59.8	59.8	59.8	90	56.9	0	0	---	0.00	30.026 
23:35	59.6	59.6	59.6	90	56.7	0	0	---	0.00	30.026 
23:40	59.5	59.5	59.5	90	56.6	0	0	---	0.00	30.026 
23:45	59.3	59.3	59.3	91	56.7	0	0	---	0.00	30.030 
23:50	59.3	59.3	59.3	91	56.7	0	0	---	0.00	30.030 
23:55	59.2	59.2	59.2	91	56.6	0	0	---	0.00	30.030 

CoCoRaHS
IN-AL-39
A2 Web Hosting
Creative Commons License
GoDaddy
Look for:

loaded 2017-12-13 19:39:54 • last modified 2010-11-18 10:43:29
Privacy PolicyDisclaimer
• wx.awcolley.com is powered by PmWiki v.2002016 •
• all content (unless otherwise noted) © 2017 A W Colley